Latest Weather Observations for Bickley

IDW60801

Issued at 10:02 am WST Thursday 5 March 2015 (issued every 30 minutes, with the page automatically refreshed every 10 minutes)

About weather observations | Map of weather stations | Latest weather observations for WA | Other Formats
Station Details ID: 009240 Name: BICKLEY Lat: -32.01 Lon: 116.14 Height: 384.0 m
Data from the previous 72 hours. | See also: Recent months at Bickley
Date/Time
WST
Temp
°C
App
Temp
°C
Dew
Point
Rel
Hum
%
Delta-T
°C
Wind Press
QNH
hPa
Press
MSL
hPa
Rain
since 9 am
mm
Dir
 
Spd
km/h
Gust
km/h
Spd
kts
Gust
kts
05/10:00am 23.2 - 11.9 49 6.5 - - - - - - - 0.0
05/09:30am 21.4 - 11.4 53 5.6 - - - - - - - 0.0
05/09:00am 20.2 - 12.2 60 4.6 - - - - - - - 0.0
05/08:30am 18.7 - 11.8 64 3.9 - - - - - - - 0.0
05/08:00am 17.1 - 11.8 71 2.9 - - - - - - - 0.0
05/07:30am 15.8 - 11.8 77 2.2 - - - - - - - 0.0
05/07:00am 14.6 - 11.4 81 1.7 - - - - - - - 0.0
05/06:30am 14.2 - 11.0 81 1.7 - - - - - - - 0.0
05/06:00am 14.2 - 11.0 81 1.7 - - - - - - - 0.0
05/05:30am 14.4 - 11.0 80 1.8 - - - - - - - 0.0
05/05:00am 14.5 - 10.9 79 1.9 - - - - - - - 0.0
05/04:30am 14.9 - 10.9 77 2.2 - - - - - - - 0.0
05/04:00am 15.1 - 10.7 75 2.4 - - - - - - - 0.0
05/03:30am 15.5 - 10.5 72 2.7 - - - - - - - 0.0
05/03:00am 16.0 - 10.7 71 2.9 - - - - - - - 0.0
05/02:30am 16.4 - 10.7 69 3.1 - - - - - - - 0.0
05/02:00am 17.0 - 11.1 68 3.2 - - - - - - - 0.0
05/01:30am 17.6 - 10.9 65 3.7 - - - - - - - 0.0
05/01:00am 18.6 - 10.9 61 4.2 - - - - - - - 0.0
05/12:30am 19.6 - 10.3 55 5.1 - - - - - - - 0.0
05/12:00am 20.3 - 10.1 52 5.6 - - - - - - - 0.0
 
Date/Time
WST
Temp
°C
App
Temp
°C
Dew
Point
Rel
Hum
%
Delta-T
°C
Wind Press
QNH
hPa
Press
MSL
hPa
Rain
since 9 am
mm
Dir
 
Spd
km/h
Gust
km/h
Spd
kts
Gust
kts
04/11:30pm 20.9 - 9.5 48 6.2 - - - - - - - 0.0
04/11:00pm 21.4 - -36.9 1 13.5 - - - - - - - 0.0
04/10:30pm 22.1 - 8.9 43 7.2 - - - - - - - 0.0
04/10:00pm 22.7 - 9.1 42 7.4 - - - - - - - 0.0
04/09:30pm 23.4 - 7.9 37 8.3 - - - - - - - 0.0
04/09:00pm 23.7 - 7.3 35 8.7 - - - - - - - 0.0
04/08:30pm 23.8 - - - - - - - - - - - 0.0
04/08:00pm 24.2 - - - - - - - - - - - 0.0
04/07:30pm 24.6 - 8.1 35 8.9 - - - - - - - 0.0
04/07:00pm 25.0 - - - - - - - - - - - 0.0
04/06:30pm 25.8 - - - - - - - - - - - 0.0
04/06:00pm 27.1 - 8.0 30 10.5 - - - - - - - 0.0
04/05:30pm 27.9 - 8.2 29 10.9 - - - - - - - 0.0
04/05:00pm 28.4 - - - - - - - - - - - 0.0
04/04:30pm 28.9 - - - - - - - - - - - 0.0
04/04:00pm 29.0 - - - - - - - - - - - 0.0
04/03:30pm 29.3 - - - - - - - - - - - 0.0
04/03:00pm 28.7 - - - - - - - - - - - 0.0
04/02:30pm 28.0 - - - - - - - - - - - 0.0
04/02:00pm 29.0 - - - - - - - - - - - 0.0
04/01:30pm 28.8 - - - - - - - - - - - 0.0
04/01:00pm 27.9 - - - - - - - - - - - 0.0
04/12:30pm 27.3 - - - - - - - - - - - 0.0
04/12:00pm 26.8 - - - - - - - - - - - 0.0
04/11:30am 26.0 - 12.1 42 8.1 - - - - - - - 0.0
04/11:00am 25.1 - 12.7 46 7.3 - - - - - - - 0.0
04/10:30am 23.0 - 12.6 52 6.0 - - - - - - - 0.0
04/10:00am 22.1 - 13.2 57 5.2 - - - - - - - 0.0
04/09:30am 21.1 - 13.5 62 4.4 - - - - - - - 0.0
04/09:00am 19.9 - 12.9 64 4.0 - - - - - - - 0.0
04/08:30am 18.4 - 13.0 71 3.1 - - - - - - - 0.0
04/08:00am 16.9 - 13.2 79 2.1 - - - - - - - 0.0
04/07:30am 15.5 - 13.0 85 1.4 - - - - - - - 0.0
04/07:00am 14.5 - 12.5 88 1.1 - - - - - - - 0.0
04/06:30am 14.1 - 12.1 88 1.1 - - - - - - - 0.0
04/06:00am 14.1 - 12.0 87 1.2 - - - - - - - 0.0
04/05:30am 14.1 - 11.8 86 1.3 - - - - - - - 0.0
04/05:00am 14.2 - 11.7 85 1.4 - - - - - - - 0.0
04/04:30am 14.4 - 11.6 83 1.5 - - - - - - - 0.0
04/04:00am 14.8 - 11.6 81 1.8 - - - - - - - 0.0
04/03:30am 15.2 - 11.6 79 2.0 - - - - - - - 0.0
04/03:00am 15.6 - 11.8 78 2.1 - - - - - - - 0.0
04/02:30am 16.1 - 11.9 76 2.3 - - - - - - - 0.0
04/02:00am 16.4 - 11.6 73 2.7 - - - - - - - 0.0
04/01:30am 16.8 - 11.5 71 2.9 - - - - - - - 0.0
04/01:00am 17.3 - 11.8 70 3.1 - - - - - - - 0.0
04/12:30am 17.8 - 12.0 69 3.3 - - - - - - - 0.0
04/12:00am 18.4 - 12.2 67 3.5 - - - - - - - 0.0
 
Date/Time
WST
Temp
°C
App
Temp
°C
Dew
Point
Rel
Hum
%
Delta-T
°C
Wind Press
QNH
hPa
Press
MSL
hPa
Rain
since 9 am
mm
Dir
 
Spd
km/h
Gust
km/h
Spd
kts
Gust
kts
03/11:30pm 18.9 - 12.2 65 3.8 - - - - - - - 0.0
03/11:00pm 19.7 - 12.2 62 4.3 - - - - - - - 0.0
03/10:30pm 20.6 - 11.8 57 5.0 - - - - - - - 0.0
03/10:00pm 21.3 - 10.5 50 6.0 - - - - - - - 0.0
03/09:30pm 22.1 - 9.3 44 7.0 - - - - - - - 0.0
03/09:00pm 22.4 - 9.2 43 7.2 - - - - - - - 0.0
03/08:30pm 22.7 - 9.1 42 7.4 - - - - - - - 0.0
03/08:00pm 22.8 - 8.9 41 7.6 - - - - - - - 0.0
03/07:30pm 23.4 - - - - - - - - - - - 0.0
03/07:00pm 24.0 - - - - - - - - - - - 0.0
03/06:30pm 24.8 - 9.5 38 8.5 - - - - - - - 0.0
03/06:00pm 26.0 - - - - - - - - - - - 0.0
03/05:30pm 26.6 - - - - - - - - - - - 0.0
03/05:00pm 27.5 - - - - - - - - - - - 0.0
03/04:30pm 28.1 - - - - - - - - - - - 0.0
03/04:00pm 28.5 - - - - - - - - - - - 0.0
03/03:30pm 27.7 - - - - - - - - - - - 0.0
03/03:00pm 28.8 - - - - - - - - - - - 0.0
03/02:30pm 27.8 - - - - - - - - - - - 0.0
03/02:00pm 28.4 - - - - - - - - - - - 0.0
03/01:30pm 27.5 - - - - - - - - - - - 0.0
03/01:00pm 26.6 - - - - - - - - - - - 0.0
03/12:30pm 26.6 - - - - - - - - - - - 0.0
03/12:00pm 25.5 - - - - - - - - - - - 0.0
03/11:30am 24.7 - - - - - - - - - - - 0.0
03/11:00am 24.0 - - - - - - - - - - - 0.0
03/10:30am 22.5 - - - - - - - - - - - 0.0
03/10:00am 21.4 - - - - - - - - - - - 0.0
03/09:30am 20.3 - - - - - - - - - - - 0.0
03/09:00am 19.3 - - - - - - - - - - - 0.0
03/08:30am 18.0 - - - - - - - - - - - 0.0
03/08:00am 17.2 - - - - - - - - - - - 0.0
03/07:30am 16.3 - - - - - - - - - - - 0.0
03/07:00am 15.0 - - - - - - - - - - - 0.0
03/06:30am 14.4 - - - - - - - - - - - 0.0
03/06:00am 14.4 - - - - - - - - - - - 0.0
03/05:30am 14.4 - - - - - - - - - - - 0.0
03/05:00am 14.5 - - - - - - - - - - - 0.0
03/04:30am 14.5 - - - - - - - - - - - 0.0
03/04:00am 14.6 - - - - - - - - - - - 0.0
03/03:30am 14.5 - - - - - - - - - - - 0.0
03/03:00am 14.6 - - - - - - - - - - - 0.0
03/02:30am 14.7 - - - - - - - - - - - 0.0
03/02:00am 15.1 - - - - - - - - - - - 0.0
03/01:30am 15.3 - - - - - - - - - - - 0.0
03/01:00am 15.4 - - - - - - - - - - - 0.0
03/12:30am 15.5 - - - - - - - - - - - 0.0
03/12:00am 15.8 - - - - - - - - - - - 0.0
 
Date/Time
WST
Temp
°C
App
Temp
°C
Dew
Point
Rel
Hum
%
Delta-T
°C
Wind Press
QNH
hPa
Press
MSL
hPa
Rain
since 9 am
mm
Dir
 
Spd
km/h
Gust
km/h
Spd
kts
Gust
kts
02/11:30pm 16.1 - - - - - - - - - - - 0.0
02/11:00pm 16.6 - - - - - - - - - - - 0.0
02/10:30pm 17.0 - - - - - - - - - - - 0.0
02/10:00pm 17.4 - - - - - - - - - - - 0.0
02/09:30pm 17.8 - - - - - - - - - - - 0.0
02/09:00pm 18.5 - - - - - - - - - - - 0.0
02/08:30pm 18.3 - - - - - - - - - - - 0.0
02/08:00pm 18.6 - - - - - - - - - - - 0.0
02/07:30pm 18.8 - - - - - - - - - - - 0.0
02/07:00pm 19.2 - - - - - - - - - - - 0.0
02/06:30pm 20.0 - - - - - - - - - - - 0.0
02/06:00pm 21.0 - - - - - - - - - - - 0.0
02/05:30pm 21.9 - - - - - - - - - - - 0.0
02/05:00pm 22.3 - - - - - - - - - - - 0.0
02/04:30pm 23.1 - 9.8 43 7.4 - - - - - - - 0.0
02/04:00pm 23.7 - 11.1 45 7.2 - - - - - - - 0.0
02/03:30pm 23.4 - 11.1 46 7.0 - - - - - - - 0.0
02/03:00pm 23.1 - 11.2 47 6.8 - - - - - - - 0.0
02/02:30pm 23.4 - 11.1 46 7.0 - - - - - - - 0.0
02/02:00pm 24.1 - 11.1 44 7.4 - - - - - - - 0.0
02/01:30pm 24.2 - 11.2 44 7.4 - - - - - - - 0.0
02/01:00pm 23.5 - 11.2 46 7.0 - - - - - - - 0.0
02/12:30pm 23.7 - 11.1 45 7.2 - - - - - - - 0.0
02/12:00pm 22.6 - 11.0 48 6.5 - - - - - - - 0.0
02/11:30am 21.9 - 11.3 51 6.0 - - - - - - - 0.0
02/11:00am 21.5 - 11.2 52 5.8 - - - - - - - 0.0
02/10:30am 21.0 - 11.3 54 5.5 - - - - - - - 0.0

Other Formats:

Comma delimited format used in spreadsheet applications
http://www.bom.gov.au/fwo/IDW60801/IDW60801.95610.axf

JavaScript Object Notation format (JSON) in row-major order
http://www.bom.gov.au/fwo/IDW60801/IDW60801.95610.json